createdAt,value
2019-02-05T00:04:30.893Z,15.49
2019-02-05T00:09:38.972Z,15.96
2019-02-05T00:14:59.201Z,15.30
2019-02-05T00:19:47.639Z,19.44
2019-02-05T00:24:55.937Z,19.96
2019-02-05T00:30:03.478Z,16.55
2019-02-05T00:35:10.718Z,15.17
2019-02-05T00:40:17.958Z,15.72
2019-02-05T00:45:26.123Z,15.63
2019-02-05T00:50:33.523Z,17.16
2019-02-05T00:55:40.678Z,15.95
2019-02-05T01:00:49.004Z,13.31
2019-02-05T01:05:57.251Z,13.42
2019-02-05T01:11:17.377Z,13.74
2019-02-05T01:16:05.628Z,11.26
2019-02-05T01:21:13.002Z,14.74
2019-02-05T01:26:28.906Z,13.99
2019-02-05T01:31:28.644Z,14.55
2019-02-05T01:36:35.872Z,14.44
2019-02-05T01:46:46.285Z,12.40
2019-02-05T01:51:54.515Z,14.25
2019-02-05T01:57:02.703Z,14.02
2019-02-05T02:02:10.020Z,12.98
2019-02-05T02:07:17.143Z,12.92
2019-02-05T02:12:25.481Z,13.63
2019-02-05T02:17:32.769Z,14.96
2019-02-05T02:22:40.892Z,13.09
2019-02-05T02:27:48.173Z,12.62
2019-02-05T02:32:55.693Z,14.27
2019-02-05T02:43:03.716Z,16.06
2019-02-05T02:48:15.012Z,12.78
2019-02-05T02:53:13.464Z,17.48
2019-02-05T02:58:20.719Z,15.86
2019-02-05T03:03:27.913Z,13.18
2019-02-05T03:08:35.972Z,15.87
2019-02-05T03:13:44.611Z,16.53
2019-02-05T03:18:51.724Z,17.14
2019-02-05T03:24:12.912Z,15.43
2019-02-05T03:29:00.969Z,15.10
2019-02-05T03:34:22.074Z,16.05
2019-02-05T03:39:22.366Z,17.81
2019-02-05T03:44:23.556Z,13.37
2019-02-05T03:49:10.774Z,16.33
2019-02-05T03:54:18.490Z,17.67
2019-02-05T04:04:32.337Z,17.08
2019-02-05T04:09:40.574Z,18.42
2019-02-05T04:14:48.077Z,15.27
2019-02-05T04:19:55.320Z,17.74
2019-02-05T04:25:02.672Z,16.96
2019-02-05T04:30:09.895Z,17.15
2019-02-05T04:35:18.361Z,18.18
2019-02-05T04:40:26.622Z,16.33
2019-02-05T04:45:34.455Z,16.79
2019-02-05T04:50:41.301Z,16.94
2019-02-05T04:55:48.607Z,17.67
2019-02-05T05:00:55.816Z,15.87
2019-02-05T05:06:16.270Z,15.33
2019-02-05T05:11:04.540Z,14.70
2019-02-05T05:16:11.961Z,17.09
2019-02-05T05:21:19.094Z,16.16
2019-02-05T05:26:27.322Z,16.14
2019-02-05T05:31:35.556Z,16.85
2019-02-05T05:36:43.008Z,18.41
2019-02-05T05:41:51.053Z,18.39
2019-02-05T05:46:59.465Z,16.46
2019-02-05T05:52:06.676Z,15.17
2019-02-05T05:57:14.082Z,16.58
2019-02-05T06:02:21.306Z,15.53
2019-02-05T06:07:28.788Z,17.31
2019-02-05T06:12:36.009Z,17.77
2019-02-05T06:17:43.354Z,17.48
2019-02-05T06:22:53.717Z,16.67
2019-02-05T06:28:04.081Z,18.65
2019-02-05T06:32:54.271Z,18.95
2019-02-05T06:37:52.505Z,18.24
2019-02-05T06:42:59.747Z,17.71
2019-02-05T06:48:06.998Z,19.09
2019-02-05T06:53:27.283Z,19.89
2019-02-05T06:58:14.496Z,18.70
2019-02-05T07:03:15.061Z,20.32
2019-02-05T07:08:27.384Z,18.90
2019-02-05T07:13:24.654Z,17.82
2019-02-05T07:18:32.924Z,19.25
2019-02-05T08:14:15.821Z,26.75
2019-02-05T08:19:14.460Z,19.54
2019-02-05T08:24:22.852Z,17.23
2019-02-05T08:29:30.116Z,23.71
2019-02-05T08:34:42.551Z,24.87
2019-02-05T08:39:39.685Z,33.17
2019-02-05T08:44:47.979Z,30.48
2019-02-05T08:49:55.241Z,36.05
2019-02-05T08:55:15.458Z,37.57
2019-02-05T09:00:03.534Z,44.15
2019-02-05T09:05:11.883Z,65.38
2019-02-05T09:10:19.940Z,69.91
2019-02-05T09:15:29.797Z,81.73
2019-02-05T09:20:35.652Z,115.64
2019-02-05T09:25:44.140Z,128.78
2019-02-05T09:30:51.212Z,132.11
2019-02-05T09:36:12.511Z,147.36
2019-02-05T09:41:12.699Z,151.89
2019-02-05T09:46:00.056Z,173.12
2019-02-05T09:51:08.225Z,164.30
2019-02-05T09:56:16.746Z,154.86
2019-02-05T10:01:37.842Z,164.85
2019-02-05T10:06:25.317Z,187.46
2019-02-05T10:11:33.381Z,184.39
2019-02-05T10:16:41.606Z,178.25
2019-02-05T10:21:49.009Z,167.77
2019-02-05T10:26:56.424Z,162.44
2019-02-05T10:32:03.652Z,121.66
2019-02-05T10:37:10.965Z,110.09
2019-02-05T10:42:18.061Z,96.78
2019-02-05T10:47:19.330Z,84.81
2019-02-05T10:52:26.576Z,92.38
2019-02-05T10:57:33.896Z,66.26
2019-02-05T11:02:41.861Z,73.63
2019-02-05T11:07:50.584Z,67.34
2019-02-05T11:12:57.956Z,55.52
2019-02-05T11:18:07.296Z,51.89
2019-02-05T11:23:16.691Z,44.84
2019-02-05T11:28:24.169Z,40.37
2019-02-05T11:33:31.362Z,35.45
2019-02-05T11:38:40.528Z,52.65
2019-02-05T11:43:47.816Z,51.09
2019-02-05T11:48:55.020Z,60.91
2019-02-05T11:54:06.392Z,44.97
2019-02-05T11:59:16.550Z,30.88
2019-02-05T12:09:05.049Z,20.82
2019-02-05T12:19:13.172Z,20.40
2019-02-05T12:29:29.871Z,22.64
2019-02-05T12:34:27.101Z,18.51
2019-02-05T12:39:47.394Z,23.45
2019-02-05T12:44:34.507Z,24.25
2019-02-05T12:49:44.202Z,20.90
2019-02-05T12:55:13.338Z,23.12
2019-02-05T12:59:59.454Z,24.10
2019-02-05T13:05:03.990Z,24.22
2019-02-05T13:10:14.365Z,24.31
2019-02-05T13:15:11.717Z,27.47
2019-02-05T13:20:16.267Z,28.17
2019-02-05T13:25:17.019Z,24.80
2019-02-05T13:30:16.319Z,26.47
2019-02-05T13:35:24.607Z,27.41
2019-02-05T13:45:37.899Z,28.27
2019-02-05T13:50:39.609Z,30.70
2019-02-05T13:55:48.240Z,34.01
2019-02-05T14:11:11.591Z,29.47
2019-02-05T14:16:32.681Z,32.90
2019-02-05T14:21:22.955Z,30.08
2019-02-05T14:31:36.861Z,30.67
2019-02-05T14:41:42.865Z,37.05
2019-02-05T14:46:30.146Z,38.46
2019-02-05T14:51:50.789Z,37.28
2019-02-05T14:56:50.771Z,41.06
2019-02-05T15:01:43.210Z,51.33
2019-02-05T15:06:46.257Z,38.71
2019-02-05T15:11:53.633Z,41.53
2019-02-05T15:17:00.744Z,43.51
2019-02-05T15:22:11.200Z,46.56
2019-02-05T15:27:22.209Z,46.39
2019-02-05T15:32:10.763Z,45.20
2019-02-05T15:47:35.563Z,35.89
2019-02-05T15:52:35.919Z,36.48
2019-02-05T15:57:35.934Z,41.40
2019-02-05T16:02:24.287Z,35.63
2019-02-05T16:12:32.624Z,35.61
2019-02-05T16:22:53.706Z,30.21
2019-02-05T16:37:58.717Z,28.46
2019-02-05T16:42:59.089Z,25.33
2019-02-05T16:52:51.475Z,24.95
2019-02-05T17:03:02.893Z,22.10
2019-02-05T17:08:24.216Z,21.92
2019-02-05T17:13:11.817Z,24.80
2019-02-05T17:18:23.860Z,22.97
2019-02-05T17:23:26.554Z,20.60
2019-02-05T17:33:37.352Z,20.25
2019-02-05T17:38:45.011Z,22.09
2019-02-05T17:58:58.439Z,19.83
2019-02-05T18:09:20.351Z,19.33
2019-02-05T18:19:13.891Z,15.56
2019-02-05T18:24:41.382Z,18.23
2019-02-05T18:34:40.491Z,18.82
2019-02-05T18:39:27.625Z,19.29
2019-02-05T18:44:36.201Z,20.09
2019-02-05T18:54:44.432Z,22.28
2019-02-05T18:59:51.730Z,23.95
2019-02-05T19:04:59.185Z,22.13
2019-02-05T19:10:19.508Z,21.74
2019-02-05T19:25:12.183Z,27.89
2019-02-05T19:30:33.220Z,32.98
2019-02-05T19:35:33.393Z,29.53
2019-02-05T19:40:21.678Z,37.32
2019-02-05T19:45:41.892Z,33.65
2019-02-05T19:50:29.194Z,35.66
2019-02-05T19:55:36.770Z,32.82
2019-02-05T20:05:45.056Z,34.93
2019-02-05T20:10:52.337Z,39.92
2019-02-05T20:16:01.962Z,32.43
2019-02-05T20:21:09.303Z,34.47
2019-02-05T20:26:16.623Z,33.41
2019-02-05T20:31:24.129Z,35.36
2019-02-05T20:36:44.390Z,32.40
2019-02-05T20:41:44.587Z,33.17
2019-02-05T20:46:31.956Z,32.28
2019-02-05T20:51:52.116Z,32.30
2019-02-05T20:56:39.791Z,33.90
2019-02-05T21:01:47.022Z,29.39
2019-02-05T21:06:54.271Z,32.04
2019-02-05T21:12:02.490Z,32.33
2019-02-05T21:17:10.050Z,29.20
2019-02-05T21:22:30.150Z,28.16
2019-02-05T21:32:23.734Z,28.64
2019-02-05T21:37:32.139Z,31.12
2019-02-05T21:42:40.250Z,25.84
2019-02-05T21:47:48.488Z,28.16
2019-02-05T21:53:09.687Z,26.30
2019-02-05T21:57:57.025Z,28.49
2019-02-05T22:08:08.533Z,26.66
2019-02-05T22:13:25.491Z,27.34
2019-02-05T22:18:13.762Z,29.71
2019-02-05T22:23:34.860Z,28.36
2019-02-05T22:28:22.456Z,27.31
2019-02-05T22:33:29.548Z,30.58
2019-02-05T22:38:37.104Z,30.66
2019-02-05T22:43:44.175Z,32.40
2019-02-05T22:49:05.654Z,28.88
2019-02-05T22:53:53.754Z,31.82
2019-02-05T22:59:01.102Z,30.05
2019-02-05T23:04:09.296Z,33.31
2019-02-05T23:09:29.603Z,31.65
2019-02-05T23:14:32.389Z,33.74
2019-02-05T23:19:18.643Z,32.73
2019-02-05T23:24:25.859Z,33.01
2019-02-05T23:29:33.402Z,30.83
2019-02-05T23:34:40.512Z,29.66
2019-02-05T23:39:48.905Z,29.17
2019-02-05T23:44:56.167Z,31.02
2019-02-05T23:50:03.588Z,26.45
2019-02-05T23:55:10.664Z,31.53
